sensor_id;sensor_type;location;lat;lon;timestamp;P1;durP1;ratioP1;P2;durP2;ratioP2
11064;SDS011;5585;52.530;7.320;2023-04-25T00:02:18;11.57;;;3.43;;
11064;SDS011;5585;52.530;7.320;2023-04-25T00:04:45;10.10;;;3.50;;
11064;SDS011;5585;52.530;7.320;2023-04-25T00:07:14;13.27;;;3.60;;
11064;SDS011;5585;52.530;7.320;2023-04-25T00:09:41;12.00;;;3.63;;
11064;SDS011;5585;52.530;7.320;2023-04-25T00:12:09;9.57;;;3.03;;
11064;SDS011;5585;52.530;7.320;2023-04-25T00:14:35;9.40;;;3.10;;
11064;SDS011;5585;52.530;7.320;2023-04-25T00:17:02;13.07;;;3.33;;
11064;SDS011;5585;52.530;7.320;2023-04-25T00:19:29;13.27;;;3.57;;
11064;SDS011;5585;52.530;7.320;2023-04-25T00:21:56;9.27;;;3.23;;
11064;SDS011;5585;52.530;7.320;2023-04-25T00:24:22;13.17;;;3.40;;
11064;SDS011;5585;52.530;7.320;2023-04-25T00:26:49;14.67;;;3.87;;
11064;SDS011;5585;52.530;7.320;2023-04-25T00:29:17;13.13;;;3.30;;
11064;SDS011;5585;52.530;7.320;2023-04-25T00:31:43;10.20;;;3.40;;
11064;SDS011;5585;52.530;7.320;2023-04-25T00:34:10;8.90;;;2.93;;
11064;SDS011;5585;52.530;7.320;2023-04-25T00:36:37;9.73;;;2.80;;
11064;SDS011;5585;52.530;7.320;2023-04-25T00:39:03;11.47;;;3.33;;
11064;SDS011;5585;52.530;7.320;2023-04-25T00:41:31;9.07;;;2.90;;
11064;SDS011;5585;52.530;7.320;2023-04-25T00:43:59;12.70;;;3.23;;
11064;SDS011;5585;52.530;7.320;2023-04-25T00:46:29;9.07;;;3.00;;
11064;SDS011;5585;52.530;7.320;2023-04-25T00:48:57;9.33;;;2.80;;
11064;SDS011;5585;52.530;7.320;2023-04-25T00:51:23;9.03;;;2.50;;
11064;SDS011;5585;52.530;7.320;2023-04-25T00:53:51;10.27;;;2.70;;
11064;SDS011;5585;52.530;7.320;2023-04-25T00:56:18;13.37;;;2.87;;
11064;SDS011;5585;52.530;7.320;2023-04-25T00:58:45;7.77;;;2.23;;
11064;SDS011;5585;52.530;7.320;2023-04-25T01:01:11;6.57;;;2.33;;
11064;SDS011;5585;52.530;7.320;2023-04-25T01:03:40;9.07;;;2.53;;
11064;SDS011;5585;52.530;7.320;2023-04-25T01:06:07;9.97;;;2.53;;
11064;SDS011;5585;52.530;7.320;2023-04-25T01:08:34;8.13;;;2.63;;
11064;SDS011;5585;52.530;7.320;2023-04-25T01:11:00;10.27;;;2.60;;
11064;SDS011;5585;52.530;7.320;2023-04-25T01:13:27;10.43;;;3.00;;
11064;SDS011;5585;52.530;7.320;2023-04-25T01:15:54;6.37;;;2.33;;
11064;SDS011;5585;52.530;7.320;2023-04-25T01:18:20;10.03;;;2.87;;
11064;SDS011;5585;52.530;7.320;2023-04-25T01:20:49;12.70;;;3.37;;
11064;SDS011;5585;52.530;7.320;2023-04-25T01:23:18;11.70;;;2.93;;
11064;SDS011;5585;52.530;7.320;2023-04-25T01:25:45;10.37;;;2.50;;
11064;SDS011;5585;52.530;7.320;2023-04-25T01:28:11;12.20;;;2.73;;
11064;SDS011;5585;52.530;7.320;2023-04-25T01:30:38;9.70;;;3.40;;
11064;SDS011;5585;52.530;7.320;2023-04-25T01:33:05;10.20;;;2.63;;
11064;SDS011;5585;52.530;7.320;2023-04-25T01:35:34;10.00;;;2.67;;
11064;SDS011;5585;52.530;7.320;2023-04-25T01:38:08;12.80;;;3.40;;
11064;SDS011;5585;52.530;7.320;2023-04-25T01:40:36;11.20;;;3.10;;
11064;SDS011;5585;52.530;7.320;2023-04-25T01:43:04;11.20;;;2.83;;
11064;SDS011;5585;52.530;7.320;2023-04-25T01:45:30;11.80;;;3.10;;
11064;SDS011;5585;52.530;7.320;2023-04-25T01:47:58;11.17;;;3.30;;
11064;SDS011;5585;52.530;7.320;2023-04-25T01:50:25;10.50;;;3.00;;
11064;SDS011;5585;52.530;7.320;2023-04-25T01:52:51;12.63;;;3.00;;
11064;SDS011;5585;52.530;7.320;2023-04-25T01:55:18;12.07;;;3.10;;
11064;SDS011;5585;52.530;7.320;2023-04-25T01:57:46;8.10;;;2.83;;
11064;SDS011;5585;52.530;7.320;2023-04-25T02:00:13;9.53;;;2.90;;
11064;SDS011;5585;52.530;7.320;2023-04-25T02:02:39;10.63;;;3.17;;
11064;SDS011;5585;52.530;7.320;2023-04-25T02:05:06;8.33;;;3.07;;
11064;SDS011;5585;52.530;7.320;2023-04-25T02:07:33;7.00;;;2.80;;
11064;SDS011;5585;52.530;7.320;2023-04-25T02:10:00;13.27;;;3.77;;
11064;SDS011;5585;52.530;7.320;2023-04-25T02:12:26;8.50;;;2.90;;
11064;SDS011;5585;52.530;7.320;2023-04-25T02:14:55;6.27;;;2.70;;
11064;SDS011;5585;52.530;7.320;2023-04-25T02:17:21;13.40;;;3.97;;
11064;SDS011;5585;52.530;7.320;2023-04-25T02:19:48;8.30;;;3.40;;
11064;SDS011;5585;52.530;7.320;2023-04-25T02:22:15;9.67;;;3.20;;
11064;SDS011;5585;52.530;7.320;2023-04-25T02:24:41;8.53;;;2.60;;
11064;SDS011;5585;52.530;7.320;2023-04-25T02:27:08;10.27;;;2.63;;
11064;SDS011;5585;52.530;7.320;2023-04-25T02:29:35;9.33;;;3.40;;
11064;SDS011;5585;52.530;7.320;2023-04-25T02:32:03;13.43;;;4.00;;
11064;SDS011;5585;52.530;7.320;2023-04-25T02:34:30;6.83;;;2.47;;
11064;SDS011;5585;52.530;7.320;2023-04-25T02:36:57;8.00;;;2.67;;
11064;SDS011;5585;52.530;7.320;2023-04-25T02:39:23;8.57;;;2.87;;
11064;SDS011;5585;52.530;7.320;2023-04-25T02:41:52;8.97;;;2.83;;
11064;SDS011;5585;52.530;7.320;2023-04-25T02:44:19;9.67;;;3.00;;
11064;SDS011;5585;52.530;7.320;2023-04-25T02:46:45;11.47;;;3.87;;
11064;SDS011;5585;52.530;7.320;2023-04-25T02:49:13;11.60;;;3.80;;
11064;SDS011;5585;52.530;7.320;2023-04-25T02:51:40;9.00;;;2.93;;
11064;SDS011;5585;52.530;7.320;2023-04-25T02:54:06;8.57;;;2.57;;
11064;SDS011;5585;52.530;7.320;2023-04-25T02:56:33;12.10;;;3.10;;
11064;SDS011;5585;52.530;7.320;2023-04-25T02:58:59;9.97;;;3.20;;
11064;SDS011;5585;52.530;7.320;2023-04-25T03:01:26;8.83;;;3.20;;
11064;SDS011;5585;52.530;7.320;2023-04-25T03:03:53;9.17;;;3.00;;
11064;SDS011;5585;52.530;7.320;2023-04-25T03:06:21;8.03;;;2.93;;
11064;SDS011;5585;52.530;7.320;2023-04-25T03:08:47;10.20;;;3.03;;
11064;SDS011;5585;52.530;7.320;2023-04-25T03:11:14;8.83;;;3.00;;
11064;SDS011;5585;52.530;7.320;2023-04-25T03:13:40;10.43;;;3.20;;
11064;SDS011;5585;52.530;7.320;2023-04-25T03:16:07;10.80;;;3.30;;
11064;SDS011;5585;52.530;7.320;2023-04-25T03:18:33;9.57;;;2.47;;
11064;SDS011;5585;52.530;7.320;2023-04-25T03:21:00;9.63;;;2.77;;
11064;SDS011;5585;52.530;7.320;2023-04-25T03:23:28;10.13;;;2.80;;
11064;SDS011;5585;52.530;7.320;2023-04-25T03:25:55;9.67;;;3.07;;
11064;SDS011;5585;52.530;7.320;2023-04-25T03:28:21;9.17;;;3.10;;
11064;SDS011;5585;52.530;7.320;2023-04-25T03:30:48;12.57;;;3.00;;
11064;SDS011;5585;52.530;7.320;2023-04-25T03:33:15;10.90;;;3.10;;
11064;SDS011;5585;52.530;7.320;2023-04-25T03:35:41;11.13;;;3.37;;
11064;SDS011;5585;52.530;7.320;2023-04-25T03:38:08;11.87;;;3.27;;
11064;SDS011;5585;52.530;7.320;2023-04-25T03:40:36;9.47;;;3.57;;
11064;SDS011;5585;52.530;7.320;2023-04-25T03:43:03;9.30;;;2.77;;
11064;SDS011;5585;52.530;7.320;2023-04-25T03:45:30;9.10;;;2.73;;
11064;SDS011;5585;52.530;7.320;2023-04-25T03:47:56;10.27;;;2.73;;
11064;SDS011;5585;52.530;7.320;2023-04-25T03:50:23;8.37;;;2.90;;
11064;SDS011;5585;52.530;7.320;2023-04-25T03:52:49;9.07;;;2.70;;
11064;SDS011;5585;52.530;7.320;2023-04-25T03:55:16;7.87;;;2.97;;
11064;SDS011;5585;52.530;7.320;2023-04-25T03:57:44;13.40;;;3.40;;
11064;SDS011;5585;52.530;7.320;2023-04-25T04:00:11;10.93;;;3.27;;
11064;SDS011;5585;52.530;7.320;2023-04-25T04:02:38;12.00;;;3.40;;
11064;SDS011;5585;52.530;7.320;2023-04-25T04:05:05;9.30;;;3.30;;
11064;SDS011;5585;52.530;7.320;2023-04-25T04:07:32;7.90;;;2.87;;
11064;SDS011;5585;52.530;7.320;2023-04-25T04:10:05;9.67;;;2.90;;
11064;SDS011;5585;52.530;7.320;2023-04-25T04:12:32;6.57;;;2.87;;
11064;SDS011;5585;52.530;7.320;2023-04-25T04:15:00;9.63;;;3.03;;
11064;SDS011;5585;52.530;7.320;2023-04-25T04:17:26;9.40;;;2.83;;
11064;SDS011;5585;52.530;7.320;2023-04-25T04:19:53;9.27;;;2.60;;
11064;SDS011;5585;52.530;7.320;2023-04-25T04:22:20;12.17;;;2.80;;
11064;SDS011;5585;52.530;7.320;2023-04-25T04:24:49;9.77;;;2.80;;
11064;SDS011;5585;52.530;7.320;2023-04-25T04:27:16;7.87;;;2.40;;
11064;SDS011;5585;52.530;7.320;2023-04-25T04:29:44;15.43;;;3.97;;
11064;SDS011;5585;52.530;7.320;2023-04-25T04:32:12;9.33;;;2.37;;
11064;SDS011;5585;52.530;7.320;2023-04-25T04:34:39;10.33;;;2.80;;
11064;SDS011;5585;52.530;7.320;2023-04-25T04:37:06;11.80;;;2.60;;
11064;SDS011;5585;52.530;7.320;2023-04-25T04:39:33;9.57;;;2.70;;
11064;SDS011;5585;52.530;7.320;2023-04-25T04:41:59;8.30;;;2.33;;
11064;SDS011;5585;52.530;7.320;2023-04-25T04:44:26;10.40;;;2.90;;
11064;SDS011;5585;52.530;7.320;2023-04-25T04:46:53;6.40;;;2.63;;
11064;SDS011;5585;52.530;7.320;2023-04-25T04:49:21;9.80;;;2.83;;
11064;SDS011;5585;52.530;7.320;2023-04-25T04:51:48;6.90;;;2.20;;
11064;SDS011;5585;52.530;7.320;2023-04-25T04:54:15;9.77;;;3.03;;
11064;SDS011;5585;52.530;7.320;2023-04-25T04:56:41;7.17;;;2.27;;
11064;SDS011;5585;52.530;7.320;2023-04-25T04:59:08;7.80;;;2.10;;
11064;SDS011;5585;52.530;7.320;2023-04-25T05:01:35;4.47;;;1.70;;
11064;SDS011;5585;52.530;7.320;2023-04-25T05:04:01;8.77;;;2.23;;
11064;SDS011;5585;52.530;7.320;2023-04-25T05:06:30;8.70;;;1.77;;
11064;SDS011;5585;52.530;7.320;2023-04-25T05:08:56;10.90;;;2.47;;
11064;SDS011;5585;52.530;7.320;2023-04-25T05:11:23;8.47;;;2.00;;
11064;SDS011;5585;52.530;7.320;2023-04-25T05:13:51;7.73;;;2.50;;
11064;SDS011;5585;52.530;7.320;2023-04-25T05:16:17;7.43;;;2.07;;
11064;SDS011;5585;52.530;7.320;2023-04-25T05:18:45;5.87;;;2.17;;
11064;SDS011;5585;52.530;7.320;2023-04-25T05:21:12;8.80;;;2.27;;
11064;SDS011;5585;52.530;7.320;2023-04-25T05:23:40;6.87;;;2.07;;
11064;SDS011;5585;52.530;7.320;2023-04-25T05:26:06;5.53;;;1.70;;
11064;SDS011;5585;52.530;7.320;2023-04-25T05:28:38;6.83;;;2.10;;
11064;SDS011;5585;52.530;7.320;2023-04-25T05:31:05;8.27;;;2.40;;
11064;SDS011;5585;52.530;7.320;2023-04-25T05:33:31;10.47;;;2.63;;
11064;SDS011;5585;52.530;7.320;2023-04-25T05:35:58;8.53;;;2.50;;
11064;SDS011;5585;52.530;7.320;2023-04-25T05:38:25;4.80;;;1.90;;
11064;SDS011;5585;52.530;7.320;2023-04-25T05:40:53;7.40;;;1.80;;
11064;SDS011;5585;52.530;7.320;2023-04-25T05:43:20;10.23;;;1.97;;
11064;SDS011;5585;52.530;7.320;2023-04-25T05:45:46;11.80;;;2.13;;
11064;SDS011;5585;52.530;7.320;2023-04-25T05:48:13;7.13;;;1.63;;
11064;SDS011;5585;52.530;7.320;2023-04-25T05:50:39;2.57;;;1.30;;
11064;SDS011;5585;52.530;7.320;2023-04-25T05:53:06;8.07;;;1.77;;
11064;SDS011;5585;52.530;7.320;2023-04-25T05:55:33;3.93;;;1.30;;
11064;SDS011;5585;52.530;7.320;2023-04-25T05:58:01;6.43;;;1.93;;
11064;SDS011;5585;52.530;7.320;2023-04-25T06:00:28;6.63;;;1.73;;
11064;SDS011;5585;52.530;7.320;2023-04-25T06:02:55;6.03;;;1.60;;
11064;SDS011;5585;52.530;7.320;2023-04-25T06:05:21;5.57;;;1.60;;
11064;SDS011;5585;52.530;7.320;2023-04-25T06:07:48;6.10;;;1.50;;
11064;SDS011;5585;52.530;7.320;2023-04-25T06:10:15;7.83;;;1.17;;
11064;SDS011;5585;52.530;7.320;2023-04-25T06:12:41;4.13;;;1.53;;
11064;SDS011;5585;52.530;7.320;2023-04-25T06:15:10;4.53;;;1.17;;
11064;SDS011;5585;52.530;7.320;2023-04-25T06:17:37;8.53;;;1.20;;
11064;SDS011;5585;52.530;7.320;2023-04-25T06:20:03;4.03;;;1.40;;
11064;SDS011;5585;52.530;7.320;2023-04-25T06:22:31;6.13;;;1.00;;
11064;SDS011;5585;52.530;7.320;2023-04-25T06:24:57;3.77;;;1.20;;
11064;SDS011;5585;52.530;7.320;2023-04-25T06:27:25;5.23;;;1.40;;
11064;SDS011;5585;52.530;7.320;2023-04-25T06:29:51;7.27;;;1.57;;
11064;SDS011;5585;52.530;7.320;2023-04-25T06:32:19;3.03;;;1.20;;
11064;SDS011;5585;52.530;7.320;2023-04-25T06:34:46;4.23;;;1.43;;
11064;SDS011;5585;52.530;7.320;2023-04-25T06:37:12;4.63;;;1.43;;
11064;SDS011;5585;52.530;7.320;2023-04-25T06:39:39;5.80;;;1.40;;
11064;SDS011;5585;52.530;7.320;2023-04-25T06:42:06;4.90;;;1.37;;
11064;SDS011;5585;52.530;7.320;2023-04-25T06:44:32;7.93;;;1.40;;
11064;SDS011;5585;52.530;7.320;2023-04-25T06:46:59;6.43;;;1.20;;
11064;SDS011;5585;52.530;7.320;2023-04-25T06:49:27;4.10;;;1.20;;
11064;SDS011;5585;52.530;7.320;2023-04-25T06:51:53;8.20;;;1.70;;
11064;SDS011;5585;52.530;7.320;2023-04-25T06:54:20;4.97;;;1.60;;
11064;SDS011;5585;52.530;7.320;2023-04-25T06:56:47;5.80;;;1.50;;
11064;SDS011;5585;52.530;7.320;2023-04-25T06:59:14;5.57;;;1.67;;
11064;SDS011;5585;52.530;7.320;2023-04-25T07:01:40;7.27;;;1.50;;
11064;SDS011;5585;52.530;7.320;2023-04-25T07:04:07;3.97;;;1.37;;
11064;SDS011;5585;52.530;7.320;2023-04-25T07:06:35;5.43;;;1.67;;
11064;SDS011;5585;52.530;7.320;2023-04-25T07:09:03;7.47;;;1.77;;
11064;SDS011;5585;52.530;7.320;2023-04-25T07:11:29;5.77;;;1.50;;
11064;SDS011;5585;52.530;7.320;2023-04-25T07:13:56;6.43;;;1.33;;
11064;SDS011;5585;52.530;7.320;2023-04-25T07:16:23;3.43;;;1.37;;
11064;SDS011;5585;52.530;7.320;2023-04-25T07:18:49;5.77;;;1.27;;
11064;SDS011;5585;52.530;7.320;2023-04-25T07:21:16;7.70;;;1.57;;
11064;SDS011;5585;52.530;7.320;2023-04-25T07:23:44;6.37;;;1.43;;
11064;SDS011;5585;52.530;7.320;2023-04-25T07:26:11;5.87;;;1.40;;
11064;SDS011;5585;52.530;7.320;2023-04-25T07:28:37;5.23;;;1.70;;
11064;SDS011;5585;52.530;7.320;2023-04-25T07:31:04;6.30;;;1.53;;
11064;SDS011;5585;52.530;7.320;2023-04-25T07:33:30;6.07;;;1.53;;
11064;SDS011;5585;52.530;7.320;2023-04-25T07:35:57;4.27;;;1.27;;
11064;SDS011;5585;52.530;7.320;2023-04-25T07:38:24;4.80;;;1.40;;
11064;SDS011;5585;52.530;7.320;2023-04-25T07:40:52;8.03;;;1.73;;
11064;SDS011;5585;52.530;7.320;2023-04-25T07:43:18;5.73;;;1.50;;
11064;SDS011;5585;52.530;7.320;2023-04-25T07:45:45;6.77;;;1.53;;
11064;SDS011;5585;52.530;7.320;2023-04-25T07:48:15;5.43;;;1.67;;
11064;SDS011;5585;52.530;7.320;2023-04-25T07:50:42;6.67;;;1.60;;
11064;SDS011;5585;52.530;7.320;2023-04-25T07:53:09;4.73;;;1.50;;
11064;SDS011;5585;52.530;7.320;2023-04-25T07:55:35;8.50;;;2.00;;
11064;SDS011;5585;52.530;7.320;2023-04-25T07:58:06;9.77;;;2.10;;
11064;SDS011;5585;52.530;7.320;2023-04-25T08:00:33;6.93;;;1.30;;
11064;SDS011;5585;52.530;7.320;2023-04-25T08:02:59;4.30;;;1.50;;
11064;SDS011;5585;52.530;7.320;2023-04-25T08:05:26;5.13;;;1.50;;
11064;SDS011;5585;52.530;7.320;2023-04-25T08:07:52;4.67;;;1.37;;
11064;SDS011;5585;52.530;7.320;2023-04-25T08:10:19;3.23;;;1.30;;
11064;SDS011;5585;52.530;7.320;2023-04-25T08:12:45;8.47;;;1.73;;
11064;SDS011;5585;52.530;7.320;2023-04-25T08:15:13;5.50;;;1.50;;
11064;SDS011;5585;52.530;7.320;2023-04-25T08:17:40;6.93;;;1.53;;
11064;SDS011;5585;52.530;7.320;2023-04-25T08:20:07;5.73;;;1.17;;
11064;SDS011;5585;52.530;7.320;2023-04-25T08:22:35;4.90;;;1.57;;
11064;SDS011;5585;52.530;7.320;2023-04-25T08:25:01;6.77;;;1.63;;
11064;SDS011;5585;52.530;7.320;2023-04-25T08:27:28;4.23;;;0.90;;
11064;SDS011;5585;52.530;7.320;2023-04-25T08:29:54;6.50;;;1.23;;
11064;SDS011;5585;52.530;7.320;2023-04-25T08:32:22;5.33;;;1.17;;
11064;SDS011;5585;52.530;7.320;2023-04-25T08:34:49;5.17;;;1.30;;
11064;SDS011;5585;52.530;7.320;2023-04-25T08:37:19;6.07;;;1.20;;
11064;SDS011;5585;52.530;7.320;2023-04-25T08:39:45;5.93;;;1.20;;
11064;SDS011;5585;52.530;7.320;2023-04-25T08:42:13;6.33;;;1.70;;
11064;SDS011;5585;52.530;7.320;2023-04-25T08:44:40;4.50;;;1.10;;
11064;SDS011;5585;52.530;7.320;2023-04-25T08:47:07;5.03;;;1.40;;
11064;SDS011;5585;52.530;7.320;2023-04-25T08:49:35;5.67;;;1.20;;
11064;SDS011;5585;52.530;7.320;2023-04-25T08:52:02;4.90;;;0.93;;
11064;SDS011;5585;52.530;7.320;2023-04-25T08:54:31;6.07;;;1.40;;
11064;SDS011;5585;52.530;7.320;2023-04-25T08:56:58;4.23;;;0.90;;
11064;SDS011;5585;52.530;7.320;2023-04-25T08:59:26;4.87;;;1.73;;
11064;SDS011;5585;52.530;7.320;2023-04-25T09:01:54;6.30;;;1.30;;
11064;SDS011;5585;52.530;7.320;2023-04-25T09:04:21;2.53;;;0.93;;
11064;SDS011;5585;52.530;7.320;2023-04-25T09:06:49;5.57;;;1.10;;
11064;SDS011;5585;52.530;7.320;2023-04-25T09:09:16;3.17;;;1.10;;
11064;SDS011;5585;52.530;7.320;2023-04-25T09:11:43;2.70;;;1.03;;
11064;SDS011;5585;52.530;7.320;2023-04-25T09:14:10;4.63;;;1.27;;
11064;SDS011;5585;52.530;7.320;2023-04-25T09:16:43;2.70;;;0.97;;
11064;SDS011;5585;52.530;7.320;2023-04-25T09:19:23;3.77;;;0.90;;
11064;SDS011;5585;52.530;7.320;2023-04-25T09:21:51;4.33;;;1.10;;
11064;SDS011;5585;52.530;7.320;2023-04-25T09:24:21;2.73;;;1.00;;
11064;SDS011;5585;52.530;7.320;2023-04-25T09:26:56;4.60;;;0.80;;
11064;SDS011;5585;52.530;7.320;2023-04-25T09:29:28;2.40;;;0.83;;
11064;SDS011;5585;52.530;7.320;2023-04-25T09:31:57;8.37;;;1.40;;
11064;SDS011;5585;52.530;7.320;2023-04-25T09:34:38;3.90;;;1.07;;
11064;SDS011;5585;52.530;7.320;2023-04-25T09:37:06;3.10;;;1.20;;
11064;SDS011;5585;52.530;7.320;2023-04-25T09:39:33;3.27;;;1.10;;
11064;SDS011;5585;52.530;7.320;2023-04-25T09:42:00;3.17;;;1.20;;
11064;SDS011;5585;52.530;7.320;2023-04-25T09:44:26;3.70;;;0.80;;
11064;SDS011;5585;52.530;7.320;2023-04-25T09:46:53;3.27;;;1.00;;
11064;SDS011;5585;52.530;7.320;2023-04-25T09:49:19;4.83;;;1.10;;
11064;SDS011;5585;52.530;7.320;2023-04-25T09:51:53;3.67;;;1.00;;
11064;SDS011;5585;52.530;7.320;2023-04-25T09:54:22;3.07;;;1.07;;
11064;SDS011;5585;52.530;7.320;2023-04-25T09:56:49;6.40;;;1.80;;
11064;SDS011;5585;52.530;7.320;2023-04-25T09:59:17;4.43;;;1.27;;
11064;SDS011;5585;52.530;7.320;2023-04-25T10:01:45;2.57;;;0.90;;
11064;SDS011;5585;52.530;7.320;2023-04-25T10:04:12;2.40;;;0.83;;
11064;SDS011;5585;52.530;7.320;2023-04-25T10:06:39;3.60;;;0.67;;
11064;SDS011;5585;52.530;7.320;2023-04-25T10:09:08;2.50;;;0.90;;
11064;SDS011;5585;52.530;7.320;2023-04-25T10:11:36;3.73;;;0.70;;
11064;SDS011;5585;52.530;7.320;2023-04-25T10:14:03;1.53;;;0.87;;
11064;SDS011;5585;52.530;7.320;2023-04-25T10:16:29;2.67;;;0.80;;
11064;SDS011;5585;52.530;7.320;2023-04-25T10:18:56;4.17;;;0.97;;
11064;SDS011;5585;52.530;7.320;2023-04-25T10:21:22;3.87;;;1.00;;
11064;SDS011;5585;52.530;7.320;2023-04-25T10:23:49;3.53;;;1.00;;
11064;SDS011;5585;52.530;7.320;2023-04-25T10:26:16;2.47;;;1.00;;
11064;SDS011;5585;52.530;7.320;2023-04-25T10:28:56;3.80;;;0.87;;
11064;SDS011;5585;52.530;7.320;2023-04-25T10:31:23;2.47;;;0.83;;
11064;SDS011;5585;52.530;7.320;2023-04-25T10:33:50;2.40;;;0.80;;
11064;SDS011;5585;52.530;7.320;2023-04-25T10:36:17;4.47;;;1.20;;
11064;SDS011;5585;52.530;7.320;2023-04-25T10:38:44;2.57;;;0.93;;
11064;SDS011;5585;52.530;7.320;2023-04-25T10:41:12;4.13;;;1.00;;
11064;SDS011;5585;52.530;7.320;2023-04-25T10:43:39;2.17;;;0.80;;
11064;SDS011;5585;52.530;7.320;2023-04-25T10:46:14;4.00;;;0.90;;
11064;SDS011;5585;52.530;7.320;2023-04-25T10:48:44;3.63;;;1.00;;
11064;SDS011;5585;52.530;7.320;2023-04-25T10:51:14;2.63;;;0.87;;
11064;SDS011;5585;52.530;7.320;2023-04-25T10:53:43;2.87;;;1.20;;
11064;SDS011;5585;52.530;7.320;2023-04-25T10:56:10;1.40;;;0.90;;
11064;SDS011;5585;52.530;7.320;2023-04-25T10:58:41;2.77;;;0.93;;
11064;SDS011;5585;52.530;7.320;2023-04-25T11:01:08;2.93;;;0.90;;
11064;SDS011;5585;52.530;7.320;2023-04-25T11:03:39;3.03;;;0.73;;
11064;SDS011;5585;52.530;7.320;2023-04-25T11:06:06;2.27;;;0.80;;
11064;SDS011;5585;52.530;7.320;2023-04-25T11:08:36;2.73;;;0.77;;
11064;SDS011;5585;52.530;7.320;2023-04-25T11:11:07;4.00;;;0.90;;
11064;SDS011;5585;52.530;7.320;2023-04-25T11:13:34;3.47;;;0.90;;
11064;SDS011;5585;52.530;7.320;2023-04-25T11:16:00;3.50;;;0.70;;
11064;SDS011;5585;52.530;7.320;2023-04-25T11:18:27;2.37;;;0.63;;
11064;SDS011;5585;52.530;7.320;2023-04-25T11:20:55;2.17;;;0.90;;
11064;SDS011;5585;52.530;7.320;2023-04-25T11:23:22;1.17;;;0.50;;
11064;SDS011;5585;52.530;7.320;2023-04-25T11:25:49;2.47;;;0.73;;
11064;SDS011;5585;52.530;7.320;2023-04-25T11:28:20;1.70;;;0.60;;
11064;SDS011;5585;52.530;7.320;2023-04-25T11:30:47;4.53;;;1.20;;
11064;SDS011;5585;52.530;7.320;2023-04-25T11:33:15;2.93;;;0.90;;
11064;SDS011;5585;52.530;7.320;2023-04-25T11:35:41;5.10;;;1.17;;
11064;SDS011;5585;52.530;7.320;2023-04-25T11:38:10;3.50;;;0.93;;
11064;SDS011;5585;52.530;7.320;2023-04-25T11:40:36;2.77;;;0.80;;
11064;SDS011;5585;52.530;7.320;2023-04-25T11:43:03;2.07;;;0.70;;
11064;SDS011;5585;52.530;7.320;2023-04-25T11:45:29;4.00;;;0.90;;
11064;SDS011;5585;52.530;7.320;2023-04-25T11:47:56;2.40;;;0.90;;
11064;SDS011;5585;52.530;7.320;2023-04-25T11:50:23;1.83;;;0.70;;
11064;SDS011;5585;52.530;7.320;2023-04-25T11:52:50;1.87;;;0.97;;
11064;SDS011;5585;52.530;7.320;2023-04-25T11:55:19;2.07;;;0.70;;
11064;SDS011;5585;52.530;7.320;2023-04-25T11:57:46;2.40;;;0.60;;
11064;SDS011;5585;52.530;7.320;2023-04-25T12:00:14;1.60;;;0.70;;
11064;SDS011;5585;52.530;7.320;2023-04-25T12:02:42;1.40;;;0.70;;
11064;SDS011;5585;52.530;7.320;2023-04-25T12:05:09;2.50;;;0.87;;
11064;SDS011;5585;52.530;7.320;2023-04-25T12:07:36;2.80;;;0.60;;
11064;SDS011;5585;52.530;7.320;2023-04-25T12:10:06;2.10;;;0.60;;
11064;SDS011;5585;52.530;7.320;2023-04-25T12:12:35;2.53;;;0.70;;
11064;SDS011;5585;52.530;7.320;2023-04-25T12:15:11;2.33;;;0.90;;
11064;SDS011;5585;52.530;7.320;2023-04-25T12:17:40;2.67;;;0.73;;
11064;SDS011;5585;52.530;7.320;2023-04-25T12:20:08;1.93;;;0.70;;
11064;SDS011;5585;52.530;7.320;2023-04-25T12:22:34;2.00;;;0.67;;
11064;SDS011;5585;52.530;7.320;2023-04-25T12:25:01;1.93;;;0.70;;
11064;SDS011;5585;52.530;7.320;2023-04-25T12:27:30;0.90;;;0.80;;
11064;SDS011;5585;52.530;7.320;2023-04-25T12:29:58;1.67;;;0.80;;
11064;SDS011;5585;52.530;7.320;2023-04-25T12:32:25;1.53;;;0.80;;
11064;SDS011;5585;52.530;7.320;2023-04-25T12:34:51;3.63;;;1.10;;
11064;SDS011;5585;52.530;7.320;2023-04-25T12:37:21;2.73;;;0.90;;
11064;SDS011;5585;52.530;7.320;2023-04-25T12:39:47;5.37;;;1.20;;
11064;SDS011;5585;52.530;7.320;2023-04-25T12:42:14;4.33;;;1.20;;
11064;SDS011;5585;52.530;7.320;2023-04-25T12:44:41;3.90;;;0.83;;
11064;SDS011;5585;52.530;7.320;2023-04-25T12:47:09;4.33;;;0.90;;
11064;SDS011;5585;52.530;7.320;2023-04-25T12:49:35;6.10;;;1.40;;
11064;SDS011;5585;52.530;7.320;2023-04-25T12:52:02;2.77;;;1.03;;
11064;SDS011;5585;52.530;7.320;2023-04-25T12:54:28;2.07;;;0.73;;
11064;SDS011;5585;52.530;7.320;2023-04-25T12:56:55;1.93;;;0.70;;
11064;SDS011;5585;52.530;7.320;2023-04-25T12:59:22;3.83;;;0.90;;
11064;SDS011;5585;52.530;7.320;2023-04-25T13:01:48;1.80;;;0.77;;
11064;SDS011;5585;52.530;7.320;2023-04-25T13:04:16;2.23;;;0.70;;
11064;SDS011;5585;52.530;7.320;2023-04-25T13:06:45;1.73;;;0.77;;
11064;SDS011;5585;52.530;7.320;2023-04-25T13:09:11;3.17;;;1.00;;
11064;SDS011;5585;52.530;7.320;2023-04-25T13:11:38;4.33;;;0.90;;
11064;SDS011;5585;52.530;7.320;2023-04-25T13:14:05;2.33;;;0.70;;
11064;SDS011;5585;52.530;7.320;2023-04-25T13:16:32;2.33;;;0.90;;
11064;SDS011;5585;52.530;7.320;2023-04-25T13:18:58;2.40;;;0.90;;
11064;SDS011;5585;52.530;7.320;2023-04-25T13:21:26;3.23;;;0.90;;
11064;SDS011;5585;52.530;7.320;2023-04-25T13:23:53;3.63;;;0.70;;
11064;SDS011;5585;52.530;7.320;2023-04-25T13:26:20;2.30;;;0.70;;
11064;SDS011;5585;52.530;7.320;2023-04-25T13:28:46;1.67;;;0.70;;
11064;SDS011;5585;52.530;7.320;2023-04-25T13:31:13;3.60;;;1.13;;
11064;SDS011;5585;52.530;7.320;2023-04-25T13:33:39;3.10;;;1.00;;
11064;SDS011;5585;52.530;7.320;2023-04-25T13:36:06;1.53;;;0.70;;
11064;SDS011;5585;52.530;7.320;2023-04-25T13:38:34;3.10;;;0.90;;
11064;SDS011;5585;52.530;7.320;2023-04-25T13:41:00;2.40;;;1.03;;
11064;SDS011;5585;52.530;7.320;2023-04-25T13:43:27;2.83;;;0.90;;
11064;SDS011;5585;52.530;7.320;2023-04-25T13:45:53;3.63;;;1.17;;
11064;SDS011;5585;52.530;7.320;2023-04-25T13:48:20;3.43;;;1.10;;
11064;SDS011;5585;52.530;7.320;2023-04-25T13:50:47;6.00;;;1.13;;
11064;SDS011;5585;52.530;7.320;2023-04-25T13:53:14;3.90;;;1.10;;
11064;SDS011;5585;52.530;7.320;2023-04-25T13:55:42;2.53;;;0.77;;
11064;SDS011;5585;52.530;7.320;2023-04-25T13:58:08;2.83;;;0.90;;
11064;SDS011;5585;52.530;7.320;2023-04-25T14:00:35;3.70;;;0.90;;
11064;SDS011;5585;52.530;7.320;2023-04-25T14:03:03;4.73;;;0.83;;
11064;SDS011;5585;52.530;7.320;2023-04-25T14:05:32;2.60;;;0.93;;
11064;SDS011;5585;52.530;7.320;2023-04-25T14:08:00;3.20;;;0.93;;
11064;SDS011;5585;52.530;7.320;2023-04-25T14:10:26;3.20;;;0.80;;
11064;SDS011;5585;52.530;7.320;2023-04-25T14:12:54;2.72;;;1.20;;
11064;SDS011;5585;52.530;7.320;2023-04-25T14:15:20;1.60;;;0.90;;
11064;SDS011;5585;52.530;7.320;2023-04-25T14:17:47;2.03;;;0.63;;
11064;SDS011;5585;52.530;7.320;2023-04-25T14:20:14;2.88;;;0.82;;
11064;SDS011;5585;52.530;7.320;2023-04-25T14:22:41;2.53;;;1.13;;
11064;SDS011;5585;52.530;7.320;2023-04-25T14:25:08;2.17;;;0.60;;
11064;SDS011;5585;52.530;7.320;2023-04-25T14:27:35;1.42;;;0.70;;
11064;SDS011;5585;52.530;7.320;2023-04-25T14:30:03;2.65;;;0.68;;
11064;SDS011;5585;52.530;7.320;2023-04-25T14:32:30;3.17;;;0.70;;
11064;SDS011;5585;52.530;7.320;2023-04-25T14:34:57;2.05;;;0.70;;
11064;SDS011;5585;52.530;7.320;2023-04-25T14:37:24;1.15;;;0.60;;
11064;SDS011;5585;52.530;7.320;2023-04-25T14:39:50;3.33;;;0.70;;
11064;SDS011;5585;52.530;7.320;2023-04-25T14:42:17;3.40;;;1.13;;
11064;SDS011;5585;52.530;7.320;2023-04-25T14:44:43;3.95;;;1.10;;
11064;SDS011;5585;52.530;7.320;2023-04-25T14:47:11;3.30;;;0.88;;
11064;SDS011;5585;52.530;7.320;2023-04-25T14:49:38;3.75;;;1.35;;
11064;SDS011;5585;52.530;7.320;2023-04-25T14:52:04;3.47;;;1.02;;
11064;SDS011;5585;52.530;7.320;2023-04-25T14:54:31;2.08;;;0.73;;
11064;SDS011;5585;52.530;7.320;2023-04-25T14:56:58;3.42;;;1.20;;
11064;SDS011;5585;52.530;7.320;2023-04-25T14:59:25;2.38;;;0.95;;
11064;SDS011;5585;52.530;7.320;2023-04-25T15:01:53;3.10;;;1.10;;